x

Potomac, Md (44042) Weather Station

9:40pm - Thu 29th Jan 2015 All times are EST. -5 hours from GMT.

  • Wind
    13mph, 16mph gusts
  • Air Temp 38°f
  • Sea Pressure 1016.3mb
  • Potomac, Md
  • Potomac, Md

More Historic Weather Station data

Upgrade to MSW Pro to gain access to the past 30 days of data for over 8000 Wavebouys and Weather Stations around the globe.

Join Pro

Comparision Forecast

View Surf forecast
   
Thu 01/29 9:40pm  -   -  13 16 mph 1016.3mb - 38f
9:30pm  -   -  13 16 mph 1016.5mb - 38f
9:20pm  -   -  13 16 mph 1016.6mb - 38f
9:10pm  -   -  13 16 mph 1016.7mb - 38f
9:00pm 1.6ft 3s 16 18 mph 1016.9mb 37f 38f
8:50pm  -   -  13 18 mph 1017.1mb - 38f
8:40pm  -   -  13 16 mph 1017.3mb - 38f
8:30pm  -   -  13 18 mph 1017.5mb - 38f
8:20pm  -   -  13 16 mph 1017.6mb - 37f
8:10pm  -   -  11 13 mph 1017.8mb - 37f
8:00pm 1.6ft 3s 11 13 mph 1018mb 37f 37f
7:50pm  -   -  11 16 mph 1017.9mb - 37f
7:40pm  -   -  13 16 mph 1017.9mb - 37f
7:30pm  -   -  13 18 mph 1017.9mb - 37f
7:20pm  -   -  13 16 mph 1017.9mb - 37f
7:10pm  -   -  13 16 mph 1018.1mb - 37f
7:00pm 1.6ft 3s 16 18 mph 1018.1mb 37f 37f
6:50pm  -   -  16 18 mph 1018.2mb - 37f
6:40pm  -   -  13 18 mph 1018.6mb - 37f
5:50pm  -   -  16 18 mph 1018.8mb - 37f
5:40pm  -   -  13 16 mph 1018.9mb - 37f
5:30pm  -   -  13 18 mph 1018.8mb - 37f
5:10pm  -   -  16 18 mph 1019.1mb - 37f
5:00pm 1ft 2s 16 18 mph 1019.1mb 37f 36f
4:50pm  -   -  16 18 mph 1019.3mb - 36f
4:40pm  -   -  16 18 mph 1019.3mb - 36f
4:30pm  -   -  16 18 mph 1019.5mb - 36f
4:20pm  -   -  16 18 mph 1019.7mb - 36f
4:10pm  -   -  16 18 mph 1019.7mb - 36f
4:00pm 1ft 2s 13 18 mph 1020mb 37f 36f
3:50pm  -   -  13 16 mph 1020.1mb - 36f
3:40pm  -   -  13 16 mph 1020.5mb - 36f
3:20pm  -   -  13 16 mph 1020.3mb - 36f
2:50pm  -   -  11 13 mph 1020.9mb - 36f
1:40pm  -   -  9
mph
1022.2mb - 35f
1:30pm  -   -  9 11 mph 1022.5mb - 35f
12:20pm  -   -  11 13 mph 1023.9mb - 33f
11:50am  -   -  11 13 mph 1024.6mb - 33f
11:40am  -   -  9 11 mph 1024.9mb - 32f
11:30am  -   -  9 11 mph 1025.2mb - 32f
11:20am  -   -  9 11 mph 1025.3mb - 32f
11:10am  -   -  9 11 mph 1025.4mb - 32f
11:00am 0.3ft  -  9 11 mph 1025.6mb 37f 32f
Wed 01/28 10:10pm  -   -  13 18 mph 1025.7mb - 33f
10:00pm 1.3ft 3s 13 18 mph 1025.6mb 37f 33f
9:50pm  -   -  13 16 mph 1025.5mb - 33f
9:30pm  -   -  11 16 mph 1025.4mb - 33f
9:10pm  -   -  11 13 mph 1025.3mb - 33f
9:00pm 2ft 3s 13 18 mph 1025.3mb 37f 33f
8:50pm  -   -  13 18 mph 1025.2mb - 33f
8:40pm  -   -  16 18 mph 1025.1mb - 33f
8:20pm  -   -  16 20 mph 1025mb - 34f
8:10pm  -   -  16 18 mph 1024.9mb - 34f
8:00pm 2ft 3s 18 22 mph 1024.7mb 37f 34f
7:50pm  -   -  16 20 mph 1024.7mb - 34f
7:40pm  -   -  13 16 mph 1024.6mb - 34f
7:30pm  -   -  13 18 mph 1024.4mb - 34f
7:20pm  -   -  13 16 mph 1024.4mb - 34f
7:00pm 2ft 3s 13 18 mph 1024.2mb 37f 34f
6:50pm  -   -  11 13 mph 1024.1mb - 35f
6:40pm  -   -  13 18 mph 1024.1mb - 35f
6:30pm  -   -  13 18 mph 1024mb - 35f
6:20pm  -   -  16 20 mph 1023.9mb - 35f
6:10pm  -   -  18 22 mph 1023.7mb - 35f
6:00pm 2ft 3s 18 22 mph 1023.6mb 38f 35f
5:50pm  -   -  20 25 mph 1023.4mb - 35f
5:40pm  -   -  20 25 mph 1023.2mb - 35f
5:30pm  -   -  20 22 mph 1023mb - 36f
5:20pm  -   -  18 22 mph 1022.9mb - 36f
5:10pm  -   -  18 20 mph 1022.8mb - 36f
5:00pm 2.5ft 3s 18 22 mph 1022.6mb 38f 37f
4:50pm  -   -  18 22 mph 1022.5mb - 37f
4:20pm  -   -  18 22 mph 1022.1mb - 37f
9:20am  -   -  18 25 mph 1021.8mb - 27f
9:10am  -   -  18 22 mph 1021.6mb - 27f
9:00am  -   -  18 22 mph 1021.5mb 37f 27f
8:50am  -   -  18 25 mph 1021.4mb - 26f
8:40am  -   -  18 20 mph 1021.3mb - 26f
8:30am  -   -  18 22 mph 1021.1mb - 26f
8:20am  -   -  18 22 mph 1021mb - 26f
8:10am  -   -  18 25 mph 1020.8mb - 26f
8:00am  -   -  20 22 mph 1020.6mb 37f 26f
7:40am  -   -  18 22 mph 1020.1mb - 26f
7:30am  -   -  18 25 mph 1020mb - 26f
7:20am  -   -  18 22 mph 1019.8mb - 26f
7:10am  -   -  20 22 mph 1019.5mb - 26f
7:00am  -   -  18 22 mph 1019.3mb 37f 26f
6:50am  -   -  18 22 mph 1019.2mb - 26f
6:40am  -   -  18 22 mph 1019mb - 27f
6:30am  -   -  18 22 mph 1018.7mb - 27f
6:10am  -   -  16 22 mph 1018.4mb - 27f
6:00am 2ft 3s 18 22 mph 1018.2mb 37f 27f
5:40am  -   -  18 22 mph 1017.8mb - 27f
5:30am  -   -  18 22 mph 1017.6mb - 27f
5:20am  -   -  18 22 mph 1017.5mb - 28f
5:10am  -   -  16 18 mph 1017.3mb - 28f
5:00am 2.5ft 3s 18 22 mph 1017.2mb 38f 28f
4:40am  -   -  18 27 mph 1016.9mb - 28f
4:30am  -   -  16 20 mph 1016.6mb - 28f
4:20am  -   -  20 25 mph 1016.5mb - 28f
4:10am  -   -  18 22 mph 1016.4mb - 29f
4:00am 2.5ft 3s 18 20 mph 1016.2mb 38f 29f
3:50am  -   -  18 25 mph 1016.1mb - 29f
3:40am  -   -  20 25 mph 1016mb - 29f
3:30am  -   -  20 27 mph 1016mb - 29f
3:20am  -   -  20 27 mph 1015.8mb - 29f
3:10am  -   -  18 27 mph 1015.7mb - 29f
3:00am 2.5ft 3s 18 25 mph 1015.6mb 38f 29f
2:50am  -   -  18 25 mph 1015.5mb - 29f
2:30am  -   -  16 20 mph 1015.1mb - 30f
2:20am  -   -  18 22 mph 1015mb - 30f
2:10am  -   -  20 27 mph 1014.9mb - 30f
2:00am 2.5ft 3s 18 25 mph 1014.7mb 38f 30f
1:50am  -   -  18 22 mph 1014.5mb - 30f
1:40am  -   -  18 25 mph 1014.4mb - 30f
1:30am  -   -  20 27 mph 1014.2mb - 30f
1:00am 2.5ft 3s 20 22 mph 1013.7mb 38f 31f
12:50am  -   -  20 27 mph 1013.5mb - 31f
12:20am  -   -  20 27 mph 1013.3mb - 31f
12:10am  -   -  20 25 mph 1013.3mb - 31f
12:00am 2.5ft 3s 20 25 mph 1013.1mb 38f 31f
Tue 01/27 11:50pm  -   -  20 25 mph 1013.1mb - 32f
11:40pm  -   -  20 25 mph 1012.9mb - 32f
11:10pm  -   -  20 25 mph 1012.4mb - 32f
11:00pm 2.5ft 3s 20 25 mph 1012.3mb 38f 32f
10:50pm  -   -  20 25 mph 1012.2mb - 32f
10:40pm  -   -  20 25 mph 1012mb - 32f
10:30pm  -   -  20 25 mph 1011.9mb - 33f
10:20pm  -   -  20 25 mph 1011.7mb - 33f
10:10pm  -   -  20 25 mph 1011.6mb - 33f
10:00pm  -   -  20 25 mph 1011.4mb - 33f
9:40pm  -   -  20 25 mph 1011.3mb - 33f
9:30pm  -   -  20 25 mph 1011.2mb - 33f
9:20pm  -   -  20 25 mph 1011.1mb - 33f
9:10pm  -   -  20 25 mph 1010.9mb - 33f
9:00pm 2.5ft 3s 18 22 mph 1010.9mb 38f 33f
8:50pm  -   -  20 22 mph 1010.9mb - 33f
8:20pm  -   -  20 22 mph 1010.5mb - 33f
8:10pm  -   -  18 22 mph 1010.4mb - 34f
7:50pm  -   -  18 22 mph 1010.1mb - 33f
7:40pm  -   -  20 25 mph 1010.1mb - 34f
7:20pm  -   -  22 27 mph 1009.8mb - 34f
7:10pm  -   -  20 27 mph 1009.6mb - 34f
7:00pm 2.5ft 3s 22 29 mph 1009.6mb 38f 34f
6:50pm  -   -  25 31 mph 1009.4mb - 34f
6:40pm  -   -  25 31 mph 1009.3mb - 34f
6:30pm  -   -  25 29 mph 1009mb - 34f
6:20pm  -   -  25 27 mph 1008.9mb - 34f
6:10pm  -   -  25 29 mph 1008.7mb - 35f
6:00pm 2.5ft 3s 22 27 mph 1008.6mb 38f 35f
5:40pm  -   -  22 27 mph 1008.4mb - 35f
5:20pm  -   -  22 29 mph 1008.2mb - 34f
5:10pm  -   -  22 27 mph 1008.1mb - 34f
5:00pm 2.5ft 3s 22 27 mph 1008mb 38f 35f
4:50pm  -   -  22 27 mph 1007.9mb - 35f
4:40pm  -   -  20 27 mph 1007.8mb - 35f
4:30pm  -   -  22 25 mph 1007.7mb - 35f
4:20pm  -   -  20 22 mph 1007.6mb - 35f
4:10pm  -   -  18 22 mph 1007.5mb - 36f
4:00pm 2.5ft 3s 18 22 mph 1007.4mb 38f 36f
3:40pm  -   -  16 20 mph 1007.3mb - 36f
3:30pm  -   -  16 20 mph 1007.2mb - 36f
3:20pm  -   -  18 20 mph 1007.1mb - 35f
3:00pm 2.5ft 3s 18 22 mph 1006.9mb 38f 35f
2:50pm  -   -  18 22 mph 1006.7mb - 35f
2:40pm  -   -  18 20 mph 1006.8mb - 35f
2:30pm  -   -  18 22 mph 1006.7mb - 35f
2:20pm  -   -  18 22 mph 1006.7mb - 35f
2:10pm  -   -  18 22 mph 1006.7mb - 34f
2:00pm 2.5ft 3s 18 20 mph 1006.8mb 38f 34f
1:50pm  -   -  18 22 mph 1006.7mb - 34f
1:40pm  -   -  18 22 mph 1006.7mb - 34f
1:30pm  -   -  18 22 mph 1006.7mb - 34f
1:20pm  -   -  20 22 mph 1006.8mb - 34f
1:10pm  -   -  18 22 mph 1006.7mb - 34f
12:50pm  -   -  18 22 mph 1006.8mb - 34f
12:40pm  -   -  18 22 mph 1006.7mb - 34f
12:20pm  -   -  18 22 mph 1006.9mb - 34f
12:10pm  -   -  18 22 mph 1007mb - 34f
12:00pm 2ft 3s 18 22 mph 1007mb 38f 33f
11:50am  -   -  18 22 mph 1007mb - 33f
11:40am  -   -  18 22 mph 1007.2mb - 33f
11:30am  -   -  18 22 mph 1007.2mb - 33f
11:20am  -   -  18 22 mph 1007.3mb - 33f
11:10am  -   -  18 22 mph 1007.4mb - 33f
11:00am 2ft 3s 16 18 mph 1007.6mb 38f 32f
10:50am  -   -  18 22 mph 1007.6mb - 32f
10:40am  -   -  18 22 mph 1007.5mb - 32f
10:30am  -   -  13 20 mph 1007.6mb - 32f
10:20am  -   -  13 18 mph 1007.6mb - 32f
10:10am  -   -  16 18 mph 1007.7mb - 31f
10:00am 2ft 3s 13 20 mph 1007.7mb 38f 31f
9:50am  -   -  16 20 mph 1007.6mb - 31f
9:40am  -   -  16 20 mph 1007.6mb - 31f
9:30am  -   -  13 20 mph 1007.6mb - 31f
9:20am  -   -  16 22 mph 1007.5mb - 31f
9:10am  -   -  16 20 mph 1007.3mb - 31f
9:00am 1.6ft 3s 16 20 mph 1007.2mb 38f 31f
8:40am  -   -  16 18 mph 1007.1mb - 31f
8:30am  -   -  13 18 mph 1007mb - 31f
8:20am  -   -  16 20 mph 1006.9mb - 31f
8:10am  -   -  16 20 mph 1006.7mb - 31f
8:00am 1.6ft 3s 18 22 mph 1006.6mb 38f 30f
7:50am  -   -  16 22 mph 1006.6mb - 30f
7:40am  -   -  18 20 mph 1006.5mb - 30f
7:30am  -   -  16 20 mph 1006.5mb - 30f
7:20am  -   -  16 20 mph 1006.4mb - 30f
7:10am  -   -  16 20 mph 1006.3mb - 30f
7:00am 1.6ft 3s 16 20 mph 1006.2mb 38f 31f
6:50am  -   -  16 20 mph 1006mb - 30f
6:40am  -   -  16 20 mph 1005.8mb - 30f
6:30am  -   -  16 20 mph 1005.7mb - 30f
6:20am  -   -  16 22 mph 1005.6mb - 30f
6:10am  -   -  16 20 mph 1005.4mb - 30f
6:00am 1.6ft 3s 16 22 mph 1005.3mb 38f 30f
5:50am  -   -  16 22 mph 1005.1mb - 30f
5:40am  -   -  16 20 mph 1005.1mb - 30f
5:20am  -   -  16 20 mph 1004.9mb - 30f
5:10am  -   -  16 22 mph 1004.8mb - 29f
5:00am 1.6ft 3s 16 20 mph 1004.9mb 38f 29f
4:50am  -   -  13 20 mph 1004.9mb - 29f
4:40am  -   -  16 22 mph 1005mb - 29f
4:30am  -   -  16 20 mph 1004.9mb - 29f
4:20am  -   -  16 20 mph 1004.8mb - 29f
4:10am  -   -  18 22 mph 1004.7mb - 29f
4:00am 1.6ft 3s 16 20 mph 1004.7mb 38f 29f
3:40am  -   -  16 20 mph 1004.7mb - 29f
3:30am  -   -  16 22 mph 1004.7mb - 29f
3:20am  -   -  16 22 mph 1004.6mb - 29f
3:10am  -   -  18 20 mph 1004.7mb - 29f
3:00am 1.6ft 3s 18 22 mph 1004.6mb 38f 29f
2:50am  -   -  16 20 mph 1004.6mb - 29f
2:40am  -   -  20 25 mph 1004.6mb - 29f
2:30am  -   -  20 25 mph 1004.5mb - 29f
2:20am  -   -  20 25 mph 1004.4mb - 29f
2:10am  -   -  20 27 mph 1004.3mb - 30f
2:00am 1.6ft 3s 20 27 mph 1004.3mb 38f 30f
1:50am  -   -  16 22 mph 1004.2mb - 30f
1:40am  -   -  16 20 mph 1004mb - 30f
1:30am  -   -  16 20 mph 1004mb - 30f
1:20am  -   -  16 20 mph 1004.1mb - 30f
1:10am  -   -  16 20 mph 1004.1mb - 30f
1:00am 1.3ft 3s 16 22 mph 1004.1mb 38f 30f
12:50am  -   -  16 20 mph 1004.1mb - 30f
12:40am  -   -  16 20 mph 1004.1mb - 30f
12:30am  -   -  16 18 mph 1004.1mb - 30f
12:20am  -   -  16 20 mph 1004.1mb - 31f
12:10am  -   -  13 18 mph 1004.1mb - 31f
12:00am 1.3ft 3s 16 20 mph 1004.1mb 38f 31f
Mon 01/26 11:50pm  -   -  16 22 mph 1004.1mb - 31f
11:40pm  -   -  16 22 mph 1004.1mb - 31f
11:30pm  -   -  16 20 mph 1004.1mb - 31f
4:00pm  -   -  18 22 mph 1002.3mb 39f 38f
3:50pm  -   -  16 18 mph 1002.3mb - 38f
3:40pm  -   -  16 20 mph 1002mb - 38f
3:30pm  -   -  16 22 mph 1001.9mb - 38f
3:20pm  -   -  18 25 mph 1001.8mb - 38f
3:10pm  -   -  20 27 mph 1001.5mb - 39f
3:00pm 0.7ft  -  22 27 mph 1001.7mb 39f 39f
2:50pm  -   -  20 25 mph 1001.8mb - 39f
2:40pm  -   -  22 27 mph 1001.7mb - 39f
2:30pm  -   -  22 27 mph 1001.8mb - 39f
2:20pm  -   -  20 27 mph 1001.9mb - 39f
2:10pm  -   -  20 25 mph 1002mb - 39f
2:00pm 0.7ft  -  20 25 mph 1002.4mb 39f 39f
1:50pm  -   -  20 25 mph 1002.6mb - 39f
1:40pm  -   -  20 22 mph 1002.7mb - 39f
1:30pm  -   -  20 22 mph 1003mb - 39f
1:10pm  -   -  20 22 mph 1002.5mb - 40f
1:00pm 0.7ft  -  20 22 mph 1002.5mb 38f 40f
12:50pm  -   -  20 22 mph 1002.9mb - 40f
12:40pm  -   -  20 25 mph 1003.3mb - 40f
12:30pm  -   -  18 22 mph 1003.8mb - 40f
12:20pm  -   -  18 22 mph 1003.9mb - 40f
12:00pm 0.7ft  -  18 22 mph 1004.1mb 38f 40f
11:50am  -   -  20 22 mph 1004.4mb - 40f
11:40am  -   -  18 25 mph 1004.7mb - 40f
11:30am  -   -  18 22 mph 1004.9mb - 40f
10:50am  -   -  18 22 mph 1005.5mb - 40f
10:40am  -   -  18 20 mph 1005.8mb - 40f
10:30am  -   -  16 20 mph 1005.9mb - 40f
10:20am  -   -  16 22 mph 1006mb - 40f
10:00am 1ft 2s 16 20 mph 1006mb 38f 40f
9:40am  -   -  16 20 mph 1006.4mb - 39f
9:30am  -   -  13 16 mph 1006.5mb - 39f
9:20am  -   -  13 16 mph 1006.5mb - 39f
9:10am  -   -  13 16 mph 1006.3mb - 39f
9:00am 1ft 2s 13 16 mph 1006.2mb 38f 39f
8:50am  -   -  16 18 mph 1006.2mb - 39f
8:40am  -   -  16 18 mph 1006.1mb - 39f
8:30am  -   -  16 20 mph 1006.3mb - 39f
8:20am  -   -  16 20 mph 1006.3mb - 39f
8:10am  -   -  18 22 mph 1006.2mb - 39f
8:00am 1ft 2s 16 22 mph 1006.4mb 38f 39f
7:50am  -   -  16 20 mph 1006.8mb - 39f
7:40am  -   -  16 18 mph 1007mb - 39f
7:30am  -   -  16 18 mph 1007.2mb - 40f
7:20am  -   -  13 20 mph 1007.3mb - 39f
7:10am  -   -  13 16 mph 1007.5mb - 40f
7:00am 1ft 2s 11 13 mph 1007.5mb 38f 40f
6:50am  -   -  11 13 mph 1007.5mb - 40f
6:40am  -   -  11 13 mph 1007.4mb - 40f
6:30am  -   -  11 13 mph 1007.3mb - 40f
6:20am  -   -  11 13 mph 1007.2mb - 40f
6:10am  -   -  11 13 mph 1007mb - 40f
6:00am 1ft 2s 9 11 mph 1006.9mb 38f 40f
5:50am  -   -  9 11 mph 1007mb - 40f
5:40am  -   -  9 11 mph 1007mb - 40f
5:30am  -   -  9 11 mph 1007mb - 40f
5:20am  -   -  9 11 mph 1007mb - 40f
5:10am  -   -  9 11 mph 1007.1mb - 40f
5:00am 1ft 2s 9
mph
1007.4mb 38f 40f
4:50am  -   -  9
mph
1007.5mb - 40f
4:40am  -   -  9
mph
1007.7mb - 40f
4:30am  -   -  9 11 mph 1007.6mb - 40f
4:20am  -   -  9 11 mph 1007.6mb - 40f
4:10am  -   -  9 11 mph 1007.6mb - 40f
4:00am 1ft 2s 9 11 mph 1007.7mb 39f 39f
3:50am  -   -  7 9 mph 1008mb - 39f
3:40am  -   -  7
mph
1008.1mb - 39f
3:30am  -   -  7
mph
1008.4mb - 39f